^^
Station Historical Data
Daily Summary for April 15, 2019 Units:  Metric    English   Both
« Previous Day
Next Day »
Daily Weekly Monthly Yearly Custom
  High: Low: Average:
Temperature: 15.7 °C -1.1 °C 7.1 °C
Dew Point: 3.3 °C -3.4 °C -1.4 °C
Humidity: 91% 30% 61%
Wind Speed: 38.6km/h 0km/h 13km/h
Wind Gust: 45.1km/h - -
Wind- - SW
Pressure: 1006 hPa 1001.2 hPa -
Precipitation: 0 mm    
Historical Graphs
 
 
Tabular Data for April 15, 2019
Time Temperature Dew Point Pressure Wind Wind Speed Wind Gust Humidity Rainfall Rate (Hourly) solar Conditions
00:04 0.3 °C -2.4 °C 1002.9 hPa SSE 16.1 km/h 29 km/h 82% 0 mm 0.00 W/m2
00:09 0.3 °C -2.3 °C 1002.9 hPa SE 14.5 km/h 24.1 km/h 83% 0 mm 0.00 W/m2
00:14 0.3 °C -2.1 °C 1002.9 hPa SE 9.7 km/h 20.9 km/h 84% 0 mm 0.00 W/m2
00:19 0.3 °C -2.1 °C 1002.9 hPa SSE 16.1 km/h 20.9 km/h 84% 0 mm 0.00 W/m2
00:24 0.2 °C -2.2 °C 1002.9 hPa SE 14.5 km/h 22.5 km/h 84% 0 mm 0.00 W/m2
00:29 0.2 °C -2.2 °C 1002.9 hPa SE 20.9 km/h 25.7 km/h 84% 0 mm 0.00 W/m2
00:34 0.2 °C -2.2 °C 1002.6 hPa SE 27.4 km/h 29 km/h 84% 0 mm 0.00 W/m2
00:39 0.2 °C -2.1 °C 1002.6 hPa SSE 22.5 km/h 29 km/h 85% 0 mm 0.00 W/m2
00:44 0.2 °C -2 °C 1002.6 hPa SE 20.9 km/h 27.4 km/h 85% 0 mm 0.00 W/m2
00:49 0.2 °C -2 °C 1002.6 hPa SSE 12.9 km/h 27.4 km/h 85% 0 mm 0.00 W/m2
00:54 0.2 °C -2 °C 1002.6 hPa SSE 20.9 km/h 29 km/h 85% 0 mm 0.00 W/m2
00:59 0.2 °C -2 °C 1002.6 hPa ESE 12.9 km/h 29 km/h 85% 0 mm 0.00 W/m2
01:04 0.3 °C -1.9 °C 1002.6 hPa SSE 14.5 km/h 25.7 km/h 85% 0 mm 0.00 W/m2
01:09 0.3 °C -1.9 °C 1002.6 hPa SSE 19.3 km/h 24.1 km/h 85% 0 mm 0.00 W/m2
01:14 0.3 °C -2.1 °C 1002.6 hPa ESE 16.1 km/h 24.1 km/h 84% 0 mm 0.00 W/m2
01:19 0.4 °C -2 °C 1002.6 hPa SE 11.3 km/h 24.1 km/h 84% 0 mm 0.00 W/m2
01:24 0.4 °C -1.8 °C 1002.6 hPa SE 6.4 km/h 20.9 km/h 85% 0 mm 0.00 W/m2
01:29 0.4 °C -1.9 °C 1002.6 hPa SSE 12.9 km/h 22.5 km/h 84% 0 mm 0.00 W/m2
01:34 0.4 °C -1.8 °C 1002.3 hPa SE 16.1 km/h 22.5 km/h 85% 0 mm 0.00 W/m2
01:39 0.4 °C -1.8 °C 1002.3 hPa SE 19.3 km/h 22.5 km/h 85% 0 mm 0.00 W/m2
01:44 0.3 °C -2.1 °C 1002.3 hPa SSE 20.9 km/h 22.5 km/h 84% 0 mm 0.00 W/m2
01:49 0.3 °C -2.1 °C 1002.3 hPa SE 11.3 km/h 24.1 km/h 84% 0 mm 0.00 W/m2
01:54 0.2 °C -2.2 °C 1002.3 hPa SE 12.9 km/h 24.1 km/h 84% 0 mm 0.00 W/m2
01:59 0.2 °C -2.1 °C 1002.3 hPa SSE 16.1 km/h 22.5 km/h 85% 0 mm 0.00 W/m2
02:04 0.1 °C -2.2 °C 1001.9 hPa SE 14.5 km/h 22.5 km/h 85% 0 mm 0.00 W/m2
02:09 -0.1 °C -2.3 °C 1001.6 hPa SE 20.9 km/h 25.7 km/h 85% 0 mm 0.00 W/m2
02:14 -0.1 °C -2.3 °C 1001.6 hPa SE 22.5 km/h 25.7 km/h 85% 0 mm 0.00 W/m2
02:19 -0.1 °C -2.2 °C 1001.2 hPa SE 17.7 km/h 27.4 km/h 86% 0 mm 0.00 W/m2
02:24 -0.2 °C -2.2 °C 1001.6 hPa SSE 19.3 km/h 27.4 km/h 86% 0 mm 0.00 W/m2
02:29 -0.2 °C -2.2 °C 1001.9 hPa SSE 19.3 km/h 27.4 km/h 86% 0 mm 0.00 W/m2
02:34 -0.2 °C -2.2 °C 1002.3 hPa SSE 11.3 km/h 19.3 km/h 86% 0 mm 0.00 W/m2
02:39 -0.2 °C -2.2 °C 1002.3 hPa South 8 km/h 19.3 km/h 86% 0 mm 0.00 W/m2
02:44 -0.3 °C -2.3 °C 1001.9 hPa SSE 12.9 km/h 16.1 km/h 86% 0 mm 0.00 W/m2
02:49 -0.4 °C -2.4 °C 1001.9 hPa SSE 9.7 km/h 14.5 km/h 86% 0 mm 0.00 W/m2
02:54 -0.4 °C -2.5 °C 1001.9 hPa SSE 12.9 km/h 14.5 km/h 86% 0 mm 0.00 W/m2
02:59 -0.4 °C -2.3 °C 1001.9 hPa SE 11.3 km/h 14.5 km/h 87% 0 mm 0.00 W/m2
03:04 -0.4 °C -2.3 °C 1001.6 hPa SE 11.3 km/h 16.1 km/h 87% 0 mm 0.00 W/m2
03:09 -0.4 °C -2.3 °C 1001.9 hPa SE 9.7 km/h 16.1 km/h 87% 0 mm 0.00 W/m2
03:14 -0.6 °C -2.4 °C 1001.6 hPa SE 8 km/h 14.5 km/h 87% 0 mm 0.00 W/m2
03:19 -0.6 °C -2.4 °C 1001.6 hPa SE 12.9 km/h 16.1 km/h 87% 0 mm 0.00 W/m2
03:24 -0.6 °C -2.3 °C 1001.6 hPa SE 11.3 km/h 16.1 km/h 88% 0 mm 0.00 W/m2
03:29 -0.6 °C -2.3 °C 1001.6 hPa SE 14.5 km/h 16.1 km/h 88% 0 mm 0.00 W/m2
03:34 -0.6 °C -2.3 °C 1001.6 hPa SSE 11.3 km/h 19.3 km/h 88% 0 mm 0.00 W/m2
03:39 -0.6 °C -2.3 °C 1001.6 hPa SSE 9.7 km/h 19.3 km/h 88% 0 mm 0.00 W/m2
03:44 -0.6 °C -2.3 °C 1001.6 hPa ESE 12.9 km/h 14.5 km/h 88% 0 mm 0.00 W/m2
03:49 -0.7 °C -2.4 °C 1001.6 hPa SE 11.3 km/h 14.5 km/h 88% 0 mm 0.00 W/m2
03:54 -0.8 °C -2.6 °C 1001.2 hPa SE 11.3 km/h 14.5 km/h 88% 0 mm 0.00 W/m2
03:59 -0.9 °C -2.6 °C 1001.2 hPa SE 6.4 km/h 12.9 km/h 88% 0 mm 0.00 W/m2
04:04 -1 °C -2.7 °C 1001.2 hPa SE 9.7 km/h 14.5 km/h 88% 0 mm 0.00 W/m2
04:09 -1 °C -2.7 °C 1001.2 hPa SE 11.3 km/h 14.5 km/h 88% 0 mm 0.00 W/m2
04:14 -0.9 °C -2.6 °C 1001.2 hPa SE 11.3 km/h 14.5 km/h 89% 0 mm 0.00 W/m2
04:19 -0.9 °C -2.5 °C 1001.2 hPa SE 17.7 km/h 17.7 km/h 89% 0 mm 0.00 W/m2
04:24 -0.8 °C -2.4 °C 1001.6 hPa SE 9.7 km/h 17.7 km/h 89% 0 mm 0.00 W/m2
04:29 -0.8 °C -2.4 °C 1001.2 hPa SE 12.9 km/h 17.7 km/h 89% 0 mm 0.00 W/m2
04:34 -0.8 °C -2.4 °C 1001.6 hPa SE 11.3 km/h 16.1 km/h 89% 0 mm 0.00 W/m2
04:39 -0.8 °C -2.4 °C 1001.6 hPa SSE 11.3 km/h 14.5 km/h 89% 0 mm 0.00 W/m2
04:44 -0.8 °C -2.4 °C 1001.2 hPa SE 9.7 km/h 12.9 km/h 89% 0 mm 0.00 W/m2
04:49 -0.8 °C -2.4 °C 1001.2 hPa SE 11.3 km/h 12.9 km/h 89% 0 mm 0.00 W/m2
04:54 -0.8 °C -2.4 °C 1001.6 hPa SE 8 km/h 12.9 km/h 89% 0 mm 0.00 W/m2
04:59 -0.9 °C -2.5 °C 1001.2 hPa SE 8 km/h 12.9 km/h 89% 0 mm 0.00 W/m2
05:04 -0.9 °C -2.5 °C 1001.2 hPa SSE 8 km/h 11.3 km/h 89% 0 mm 0.00 W/m2
05:09 -0.9 °C -2.6 °C 1001.2 hPa SSE 4.8 km/h 11.3 km/h 89% 0 mm 0.00 W/m2
05:14 -1 °C -2.6 °C 1001.6 hPa SSE 4.8 km/h 9.7 km/h 89% 0 mm 0.00 W/m2
05:19 -1.1 °C -2.6 °C 1001.2 hPa SSE 4.8 km/h 9.7 km/h 89% 0 mm 0.00 W/m2
05:24 -1.1 °C -2.6 °C 1001.2 hPa SE 6.4 km/h 11.3 km/h 89% 0 mm 0.00 W/m2
05:29 -1.1 °C -2.5 °C 1001.2 hPa SE 8 km/h 11.3 km/h 90% 0 mm 0.00 W/m2
05:34 -1 °C -2.4 °C 1001.2 hPa SE 6.4 km/h 11.3 km/h 90% 0 mm 0.00 W/m2
05:39 -1 °C -2.4 °C 1001.2 hPa SSE 9.7 km/h 11.3 km/h 90% 0 mm 0.00 W/m2
05:44 -0.9 °C -2.4 °C 1001.2 hPa South 8 km/h 11.3 km/h 90% 0 mm 0.00 W/m2
05:49 -0.9 °C -2.3 °C 1001.2 hPa South 9.7 km/h 11.3 km/h 90% 0 mm 0.00 W/m2
05:54 -0.8 °C -2.2 °C 1001.2 hPa SSE 9.7 km/h 12.9 km/h 90% 0 mm 0.00 W/m2
05:59 -0.7 °C -2.1 °C 1001.2 hPa South 6.4 km/h 12.9 km/h 90% 0 mm 0.00 W/m2
06:04 -0.6 °C -2.1 °C 1001.2 hPa SSE 9.7 km/h 12.9 km/h 90% 0 mm 0.00 W/m2
06:09 -0.5 °C -1.9 °C 1001.2 hPa SSE 9.7 km/h 12.9 km/h 90% 0 mm 0.00 W/m2
06:14 -0.4 °C -1.9 °C 1001.2 hPa SE 8 km/h 12.9 km/h 90% 0 mm 0.00 W/m2
06:19 -0.4 °C -1.9 °C 1001.2 hPa SSE 8 km/h 11.3 km/h 90% 0 mm 0.00 W/m2
06:24 -0.4 °C -1.9 °C 1001.2 hPa SSE 6.4 km/h 11.3 km/h 90% 0 mm 0.00 W/m2
06:29 -0.4 °C -1.9 °C 1001.2 hPa SSE 6.4 km/h 11.3 km/h 90% 0 mm 0.00 W/m2
06:34 -0.4 °C -1.8 °C 1001.2 hPa SE 4.8 km/h 9.7 km/h 90% 0 mm 0.00 W/m2
06:39 -0.4 °C -1.8 °C 1001.2 hPa SE 4.8 km/h 8 km/h 90% 0 mm 0.00 W/m2
06:44 -0.4 °C -1.8 °C 1001.2 hPa SSE 6.4 km/h 9.7 km/h 90% 0 mm 0.00 W/m2
06:49 -0.3 °C -1.7 °C 1001.2 hPa South 8 km/h 11.3 km/h 90% 0 mm 0.00 W/m2
06:54 -0.2 °C -1.7 °C 1001.2 hPa SSE 6.4 km/h 11.3 km/h 90% 0 mm 0.00 W/m2
06:59 -0.2 °C -1.7 °C 1001.6 hPa SE 6.4 km/h 9.7 km/h 90% 0 mm 0.00 W/m2
07:04 -0.3 °C -1.7 °C 1001.6 hPa SE 8 km/h 9.7 km/h 90% 0 mm 5.00 W/m2
07:09 -0.2 °C -1.7 °C 1001.6 hPa SE 8 km/h 11.3 km/h 90% 0 mm 5.00 W/m2
07:14 -0.2 °C -1.6 °C 1001.6 hPa SSE 9.7 km/h 11.3 km/h 90% 0 mm 7.00 W/m2
07:19 -0.1 °C -1.6 °C 1001.6 hPa SSE 6.4 km/h 11.3 km/h 90% 0 mm 11.00 W/m2
07:24 0 °C -1.4 °C 1001.6 hPa South 4.8 km/h 9.7 km/h 90% 0 mm 18.00 W/m2
07:29 0.1 °C -1.4 °C 1001.6 hPa SSE 9.7 km/h 9.7 km/h 90% 0 mm 18.00 W/m2
07:34 0.2 °C -1.3 °C 1001.6 hPa SSE 3.2 km/h 9.7 km/h 90% 0 mm 21.00 W/m2
07:39 0.2 °C -1.2 °C 1001.6 hPa SE 6.4 km/h 9.7 km/h 90% 0 mm 18.00 W/m2
07:44 0.2 °C -1.2 °C 1001.9 hPa SSE 3.2 km/h 8 km/h 90% 0 mm 19.00 W/m2
07:49 0.2 °C -1.2 °C 1001.9 hPa SSE 3.2 km/h 6.4 km/h 90% 0 mm 18.00 W/m2
07:54 0.2 °C -1.2 °C 1001.9 hPa South 4.8 km/h 6.4 km/h 90% 0 mm 25.00 W/m2
07:59 0.3 °C -1.2 °C 1001.9 hPa South 4.8 km/h 6.4 km/h 90% 0 mm 28.00 W/m2
08:04 0.4 °C -1.1 °C 1002.3 hPa South 8 km/h 8 km/h 90% 0 mm 26.00 W/m2
08:09 0.5 °C -0.9 °C 1002.3 hPa South 8 km/h 14.5 km/h 90% 0 mm 28.00 W/m2
08:14 0.7 °C -0.6 °C 1002.3 hPa South 9.7 km/h 14.5 km/h 91% 0 mm 32.00 W/m2
08:19 0.8 °C -0.6 °C 1002.3 hPa SSW 11.3 km/h 14.5 km/h 90% 0 mm 35.00 W/m2
08:24 1.1 °C -0.4 °C 1002.3 hPa South 14.5 km/h 14.5 km/h 90% 0 mm 39.00 W/m2
08:29 1.2 °C -0.2 °C 1002.6 hPa South 4.8 km/h 14.5 km/h 90% 0 mm 56.00 W/m2
08:34 1.3 °C -0.1 °C 1002.6 hPa South 8 km/h 14.5 km/h 90% 0 mm 58.00 W/m2
08:39 1.5 °C 0.1 °C 1002.6 hPa South 4.8 km/h 9.7 km/h 90% 0 mm 62.00 W/m2
08:44 1.7 °C 0.1 °C 1002.6 hPa SSW 6.4 km/h 9.7 km/h 89% 0 mm 69.00 W/m2
08:49 1.8 °C 0.2 °C 1002.6 hPa South 3.2 km/h 9.7 km/h 89% 0 mm 83.00 W/m2
08:54 2 °C 0.4 °C 1002.6 hPa SSW 4.8 km/h 9.7 km/h 89% 0 mm 81.00 W/m2
08:59 2.2 °C 0.6 °C 1002.6 hPa SSW 8 km/h 9.7 km/h 89% 0 mm 83.00 W/m2
09:04 2.4 °C 0.8 °C 1002.6 hPa SW 1.6 km/h 9.7 km/h 89% 0 mm 77.00 W/m2
09:09 2.6 °C 0.8 °C 1002.6 hPa SSW 8 km/h 9.7 km/h 88% 0 mm 91.00 W/m2
09:14 2.8 °C 1 °C 1002.6 hPa SSW 4.8 km/h 11.3 km/h 88% 0 mm 146.00 W/m2
09:19 3.2 °C 1.4 °C 1002.6 hPa SSW 6.4 km/h 11.3 km/h 88% 0 mm 167.00 W/m2
09:24 3.4 °C 1.5 °C 1002.6 hPa SW 8 km/h 12.9 km/h 87% 0 mm 97.00 W/m2
09:29 3.7 °C 1.6 °C 1002.6 hPa SSW 3.2 km/h 12.9 km/h 86% 0 mm 132.00 W/m2
09:34 3.9 °C 1.6 °C 1002.9 hPa WSW 8 km/h 9.7 km/h 85% 0 mm 148.00 W/m2
09:39 4.3 °C 1.8 °C 1002.6 hPa SSW 1.6 km/h 9.7 km/h 84% 0 mm 183.00 W/m2
09:44 4.6 °C 2.1 °C 1002.9 hPa Calm   9.7 km/h 84% 0 mm 218.00 W/m2
09:49 4.9 °C 2.3 °C 1002.9 hPa SW 4.8 km/h 9.7 km/h 83% 0 mm 195.00 W/m2
09:54 5.4 °C 2.6 °C 1002.9 hPa SW 6.4 km/h 9.7 km/h 82% 0 mm 207.00 W/m2
09:59 5.8 °C 2.6 °C 1002.9 hPa SW 8 km/h 11.3 km/h 80% 0 mm 185.00 W/m2
10:04 6.1 °C 2.6 °C 1002.9 hPa WSW 11.3 km/h 12.9 km/h 78% 0 mm 188.00 W/m2
10:09 6.3 °C 2.6 °C 1002.6 hPa WSW 8 km/h 14.5 km/h 77% 0 mm 190.00 W/m2
10:14 6.6 °C 2.4 °C 1002.6 hPa SSW 12.9 km/h 16.1 km/h 75% 0 mm 202.00 W/m2
10:19 6.8 °C 2.3 °C 1002.6 hPa SSW 11.3 km/h 17.7 km/h 73% 0 mm 216.00 W/m2
10:24 7 °C 2.5 °C 1002.6 hPa WSW 11.3 km/h 20.9 km/h 73% 0 mm 260.00 W/m2
10:29 7.3 °C 2.4 °C 1002.9 hPa SSW 9.7 km/h 20.9 km/h 71% 0 mm 311.00 W/m2
10:34 7.7 °C 2.6 °C 1002.9 hPa SW 14.5 km/h 20.9 km/h 70% 0 mm 383.00 W/m2
10:39 8.1 °C 2.7 °C 1002.9 hPa WSW 11.3 km/h 20.9 km/h 69% 0 mm 297.00 W/m2
10:44 8.3 °C 2.3 °C 1002.6 hPa WSW 16.1 km/h 22.5 km/h 66% 0 mm 301.00 W/m2
10:49 8.3 °C 2.1 °C 1002.9 hPa SW 19.3 km/h 27.4 km/h 65% 0 mm 274.00 W/m2
10:54 8.5 °C 2.3 °C 1002.9 hPa SW 19.3 km/h 27.4 km/h 65% 0 mm 325.00 W/m2
10:59 8.8 °C 2.8 °C 1002.9 hPa WSW 12.9 km/h 25.7 km/h 66% 0 mm 731.00 W/m2
11:04 9.6 °C 2.9 °C 1002.9 hPa SW 19.3 km/h 27.4 km/h 63% 0 mm 408.00 W/m2
11:09 9.7 °C 2.9 °C 1002.9 hPa SW 20.9 km/h 27.4 km/h 63% 0 mm 399.00 W/m2
11:14 9.8 °C 2.8 °C 1002.9 hPa SW 24.1 km/h 30.6 km/h 62% 0 mm 575.00 W/m2
11:19 10.3 °C 3.3 °C 1002.9 hPa SW 27.4 km/h 33.8 km/h 62% 0 mm 489.00 W/m2
11:24 10.3 °C 2.7 °C 1002.9 hPa SW 14.5 km/h 33.8 km/h 59% 0 mm 615.00 W/m2
11:29 10.6 °C 3.1 °C 1002.9 hPa SW 25.7 km/h 29 km/h 60% 0 mm 492.00 W/m2
11:34 10.6 °C 2.7 °C 1002.9 hPa SSW 16.1 km/h 29 km/h 58% 0 mm 438.00 W/m2
11:39 10.7 °C 2.7 °C 1002.9 hPa WSW 16.1 km/h 27.4 km/h 58% 0 mm 394.00 W/m2
11:44 10.9 °C 2.7 °C 1002.9 hPa SSW 11.3 km/h 25.7 km/h 57% 0 mm 747.00 W/m2
11:49 11.3 °C 2.3 °C 1002.9 hPa SW 12.9 km/h 25.7 km/h 54% 0 mm 432.00 W/m2
11:54 11.8 °C 2.3 °C 1002.9 hPa SW 6.4 km/h 25.7 km/h 52% 0 mm 534.00 W/m2
11:59 11.9 °C 1.8 °C 1002.9 hPa WSW 20.9 km/h 30.6 km/h 50% 0 mm 531.00 W/m2
12:04 11.8 °C 1.1 °C 1002.9 hPa West 12.9 km/h 30.6 km/h 48% 0 mm 573.00 W/m2
12:09 12 °C 0.7 °C 1002.9 hPa West 17.7 km/h 22.5 km/h 46% 0 mm 452.00 W/m2
12:14 12.1 °C 0.4 °C 1002.9 hPa West 14.5 km/h 22.5 km/h 45% 0 mm 510.00 W/m2
12:19 12.1 °C 0.2 °C 1002.9 hPa West 16.1 km/h 27.4 km/h 44% 0 mm 455.00 W/m2
12:24 12.2 °C 0.3 °C 1002.9 hPa WNW 20.9 km/h 27.4 km/h 44% 0 mm 531.00 W/m2
12:29 12.3 °C 0.1 °C 1002.9 hPa West 27.4 km/h 32.2 km/h 43% 0 mm 571.00 W/m2
12:34 12.5 °C 0.6 °C 1002.9 hPa NW 12.9 km/h 32.2 km/h 44% 0 mm 993.00 W/m2
12:39 12.9 °C -0.1 °C 1002.9 hPa West 16.1 km/h 29 km/h 41% 0 mm 649.00 W/m2
12:44 12.9 °C 0.3 °C 1002.9 hPa West 19.3 km/h 29 km/h 42% 0 mm 643.00 W/m2
12:49 13.2 °C -0.1 °C 1002.9 hPa WSW 25.7 km/h 25.7 km/h 40% 0 mm 842.00 W/m2
12:54 13.6 °C 0.2 °C 1002.9 hPa West 16.1 km/h 30.6 km/h 40% 0 mm 872.00 W/m2
12:59 14.2 °C -0.3 °C 1002.9 hPa WNW 9.7 km/h 30.6 km/h 37% 0 mm 1104.00 W/m2
13:04 13.8 °C -1.1 °C 1002.6 hPa WSW 14.5 km/h 32.2 km/h 36% 0 mm 789.00 W/m2
13:09 14.2 °C 0.4 °C 1002.6 hPa WNW 11.3 km/h 32.2 km/h 39% 0 mm 828.00 W/m2
13:14 14.4 °C -0.4 °C 1002.6 hPa West 16.1 km/h 30.6 km/h 36% 0 mm 1037.00 W/m2
13:19 14.6 °C -1.1 °C 1002.6 hPa WNW 24.1 km/h 37 km/h 34% 0 mm 877.00 W/m2
13:24 14.3 °C -1.3 °C 1002.6 hPa West 32.2 km/h 37 km/h 34% 0 mm 751.00 W/m2
13:29 14.3 °C -1.8 °C 1002.6 hPa West 22.5 km/h 40.2 km/h 33% 0 mm 884.00 W/m2
13:34 14.8 °C -1.8 °C 1002.3 hPa WNW 25.7 km/h 40.2 km/h 32% 0 mm 870.00 W/m2
13:39 14.4 °C -2.1 °C 1002.6 hPa West 16.1 km/h 38.6 km/h 32% 0 mm 884.00 W/m2
13:44 14.6 °C -1.9 °C 1002.6 hPa WNW 25.7 km/h 38.6 km/h 32% 0 mm 939.00 W/m2
13:49 14.8 °C -1.7 °C 1002.6 hPa West 12.9 km/h 38.6 km/h 32% 0 mm 990.00 W/m2
13:54 14.2 °C -1.8 °C 1002.3 hPa West 12.9 km/h 38.6 km/h 33% 0 mm 482.00 W/m2
13:59 14.4 °C -2.6 °C 1002.6 hPa West 12.9 km/h 38.6 km/h 31% 0 mm 311.00 W/m2
14:04 13.8 °C -2.2 °C 1002.3 hPa West 12.9 km/h 38.6 km/h 33% 0 mm 292.00 W/m2
14:09 14.6 °C -1.5 °C 1002.6 hPa WNW 35.4 km/h 40.2 km/h 33% 0 mm 350.00 W/m2
14:14 14.8 °C -1.7 °C 1002.6 hPa WNW 20.9 km/h 40.2 km/h 32% 0 mm 1046.00 W/m2
14:19 14.2 °C -2.7 °C 1002.6 hPa West 27.4 km/h 37 km/h 31% 0 mm 301.00 W/m2
14:24 14 °C -2.4 °C 1002.6 hPa West 16.1 km/h 37 km/h 32% 0 mm 352.00 W/m2
14:29 14.1 °C -1.9 °C 1002.6 hPa West 35.4 km/h 37 km/h 33% 0 mm 364.00 W/m2
14:34 14.1 °C -2.4 °C 1002.6 hPa WSW 24.1 km/h 38.6 km/h 32% 0 mm 353.00 W/m2
14:39 14.3 °C -1.7 °C 1002.3 hPa West 35.4 km/h 41.8 km/h 33% 0 mm 376.00 W/m2
14:44 14.6 °C -1.9 °C 1002.6 hPa West 27.4 km/h 45.1 km/h 32% 0 mm 287.00 W/m2
14:49 14 °C -2.4 °C 1002.6 hPa West 22.5 km/h 45.1 km/h 32% 0 mm 216.00 W/m2
14:54 13.9 °C -2.2 °C 1002.6 hPa West 22.5 km/h 35.4 km/h 33% 0 mm 281.00 W/m2
14:59 14 °C -2.1 °C 1002.6 hPa West 22.5 km/h 37 km/h 33% 0 mm 315.00 W/m2
15:04 14.3 °C -2.2 °C 1002.6 hPa WNW 25.7 km/h 37 km/h 32% 0 mm 330.00 W/m2
15:09 14.4 °C -1.7 °C 1002.6 hPa WNW 35.4 km/h 41.8 km/h 33% 0 mm 464.00 W/m2
15:14 15.6 °C -0.6 °C 1002.6 hPa WSW 29 km/h 41.8 km/h 33% 0 mm 1004.00 W/m2
15:19 15.4 °C -2.1 °C 1002.6 hPa West 16.1 km/h 37 km/h 30% 0 mm 800.00 W/m2
15:24 15.7 °C -1.4 °C 1002.6 hPa NW 24.1 km/h 35.4 km/h 31% 0 mm 916.00 W/m2
15:29 14.5 °C -2.4 °C 1002.6 hPa WNW 25.7 km/h 33.8 km/h 31% 0 mm 225.00 W/m2
15:34 14.1 °C -2 °C 1002.6 hPa WSW 24.1 km/h 40.2 km/h 33% 0 mm 255.00 W/m2
15:39 14.1 °C -1.6 °C 1002.6 hPa WNW 24.1 km/h 40.2 km/h 34% 0 mm 294.00 W/m2
15:44 14.8 °C -1.3 °C 1002.6 hPa WNW 24.1 km/h 35.4 km/h 33% 0 mm 835.00 W/m2
15:49 14.7 °C -2.3 °C 1002.6 hPa West 29 km/h 38.6 km/h 31% 0 mm 195.00 W/m2
15:54 14.9 °C -1.6 °C 1002.6 hPa WNW 19.3 km/h 38.6 km/h 32% 0 mm 482.00 W/m2
15:59 15.1 °C -1.1 °C 1002.6 hPa West 35.4 km/h 37 km/h 33% 0 mm 381.00 W/m2
16:04 15.1 °C -1.9 °C 1002.6 hPa West 17.7 km/h 35.4 km/h 31% 0 mm 288.00 W/m2
16:09 15.1 °C -1.1 °C 1002.6 hPa West 25.7 km/h 41.8 km/h 33% 0 mm 847.00 W/m2
16:14 15.3 °C -0.9 °C 1002.6 hPa WNW 27.4 km/h 41.8 km/h 33% 0 mm 721.00 W/m2
16:19 15.4 °C -0.4 °C 1002.6 hPa NW 25.7 km/h 35.4 km/h 34% 0 mm 731.00 W/m2
16:24 15.3 °C -1.3 °C 1002.6 hPa NW 30.6 km/h 35.4 km/h 32% 0 mm 719.00 W/m2
16:29 15.2 °C -1.4 °C 1002.6 hPa WNW 16.1 km/h 32.2 km/h 32% 0 mm 756.00 W/m2
16:34 15.4 °C -0.8 °C 1002.6 hPa West 38.6 km/h 38.6 km/h 33% 0 mm 689.00 W/m2
16:39 15.5 °C -1.6 °C 1002.6 hPa West 25.7 km/h 40.2 km/h 31% 0 mm 202.00 W/m2
16:44 15.2 °C -1 °C 1002.6 hPa West 20.9 km/h 40.2 km/h 33% 0 mm 169.00 W/m2
16:49 15.4 °C -1.2 °C 1002.9 hPa West 25.7 km/h 33.8 km/h 32% 0 mm 745.00 W/m2
16:54 14.9 °C -2.1 °C 1002.9 hPa West 19.3 km/h 40.2 km/h 31% 0 mm 204.00 W/m2
16:59 14.4 °C -2.1 °C 1002.9 hPa WNW 30.6 km/h 40.2 km/h 32% 0 mm 255.00 W/m2
17:04 14.4 °C -1.7 °C 1002.9 hPa West 17.7 km/h 35.4 km/h 33% 0 mm 248.00 W/m2
17:09 14.3 °C -2.2 °C 1002.9 hPa West 25.7 km/h 35.4 km/h 32% 0 mm 241.00 W/m2
17:14 14.3 °C -1.7 °C 1002.9 hPa West 29 km/h 35.4 km/h 33% 0 mm 248.00 W/m2
17:19 14.7 °C -1.4 °C 1002.9 hPa WSW 30.6 km/h 37 km/h 33% 0 mm 236.00 W/m2
17:24 14.7 °C -2.3 °C 1002.9 hPa WSW 24.1 km/h 37 km/h 31% 0 mm 362.00 W/m2
17:29 14.6 °C -1.9 °C 1003.3 hPa West 20.9 km/h 37 km/h 32% 0 mm 241.00 W/m2
17:34 14.8 °C -1.8 °C 1003.3 hPa WNW 19.3 km/h 32.2 km/h 32% 0 mm 689.00 W/m2
17:39 15.5 °C -1.6 °C 1003.3 hPa West 27.4 km/h 29 km/h 31% 0 mm 631.00 W/m2
17:44 15.6 °C -2 °C 1003.3 hPa NW 19.3 km/h 33.8 km/h 30% 0 mm 571.00 W/m2
17:49 15.2 °C -2.3 °C 1003.3 hPa West 33.8 km/h 40.2 km/h 30% 0 mm 533.00 W/m2
17:54 15.3 °C -1.8 °C 1003.3 hPa NW 17.7 km/h 40.2 km/h 31% 0 mm 512.00 W/m2
17:59 15.1 °C -1.9 °C 1003.3 hPa NW 19.3 km/h 32.2 km/h 31% 0 mm 285.00 W/m2
18:04 14.9 °C -2.1 °C 1003.6 hPa WNW 17.7 km/h 30.6 km/h 31% 0 mm 497.00 W/m2
18:09 15.2 °C -1.4 °C 1003.3 hPa West 17.7 km/h 30.6 km/h 32% 0 mm 489.00 W/m2
18:14 14.8 °C -2.2 °C 1003.6 hPa WNW 29 km/h 30.6 km/h 31% 0 mm 123.00 W/m2
18:19 13.9 °C -2.1 °C 1003.6 hPa WNW 16.1 km/h 30.6 km/h 33% 0 mm 118.00 W/m2
18:24 13.7 °C -2.3 °C 1003.6 hPa WNW 12.9 km/h 30.6 km/h 33% 0 mm 132.00 W/m2
18:29 13.7 °C -1.6 °C 1003.6 hPa WSW 16.1 km/h 24.1 km/h 35% 0 mm 146.00 W/m2
18:34 13.7 °C -2.3 °C 1003.6 hPa West 19.3 km/h 29 km/h 33% 0 mm 144.00 W/m2
18:39 13.8 °C -1.8 °C 1003.6 hPa West 17.7 km/h 30.6 km/h 34% 0 mm 149.00 W/m2
18:44 14.3 °C -1.8 °C 1003.6 hPa West 16.1 km/h 30.6 km/h 33% 0 mm 385.00 W/m2
18:49 14.7 °C -1.9 °C 1003.6 hPa West 17.7 km/h 27.4 km/h 32% 0 mm 265.00 W/m2
18:54 14.7 °C -2.3 °C 1003.6 hPa NW 9.7 km/h 24.1 km/h 31% 0 mm 279.00 W/m2
18:59 14.6 °C -2.3 °C 1003.6 hPa NW 14.5 km/h 24.1 km/h 31% 0 mm 243.00 W/m2
19:04 14.5 °C -2.4 °C 1003.9 hPa WSW 27.4 km/h 30.6 km/h 31% 0 mm 234.00 W/m2
19:09 14.4 °C -2.5 °C 1003.9 hPa West 17.7 km/h 30.6 km/h 31% 0 mm 221.00 W/m2
19:14 14.1 °C -2.4 °C 1003.9 hPa West 16.1 km/h 29 km/h 32% 0 mm 202.00 W/m2
19:19 13.8 °C -2.7 °C 1003.9 hPa West 16.1 km/h 25.7 km/h 32% 0 mm 54.00 W/m2
19:24 13.3 °C -2.7 °C 1003.9 hPa West 11.3 km/h 25.7 km/h 33% 0 mm 51.00 W/m2
19:29 12.9 °C -2.6 °C 1003.9 hPa West 14.5 km/h 22.5 km/h 34% 0 mm 46.00 W/m2
19:34 12.7 °C -2.1 °C 1003.9 hPa West 14.5 km/h 20.9 km/h 36% 0 mm 81.00 W/m2
19:39 12.8 °C -1.9 °C 1003.9 hPa West 16.1 km/h 17.7 km/h 36% 0 mm 90.00 W/m2
19:44 13.1 °C -1.7 °C 1003.9 hPa West 12.9 km/h 17.7 km/h 36% 0 mm 70.00 W/m2
19:49 13.2 °C -1.6 °C 1003.9 hPa West 9.7 km/h 17.7 km/h 36% 0 mm 62.00 W/m2
19:54 13.2 °C -1.9 °C 1003.9 hPa WNW 9.7 km/h 16.1 km/h 35% 0 mm 51.00 W/m2
19:59 13.1 °C -2 °C 1003.9 hPa WNW 11.3 km/h 16.1 km/h 35% 0 mm 42.00 W/m2
20:04 12.9 °C -2.2 °C 1003.9 hPa West 11.3 km/h 17.7 km/h 35% 0 mm 28.00 W/m2
20:09 12.6 °C -2.1 °C 1004.3 hPa West 9.7 km/h 17.7 km/h 36% 0 mm 21.00 W/m2
20:14 12.3 °C -2 °C 1004.3 hPa West 11.3 km/h 14.5 km/h 37% 0 mm 18.00 W/m2
20:19 11.8 °C -2.1 °C 1004.3 hPa West 8 km/h 12.9 km/h 38% 0 mm 12.00 W/m2
20:24 11.4 °C -2.1 °C 1004.3 hPa WNW 8 km/h 11.3 km/h 39% 0 mm 9.00 W/m2
20:29 11 °C -2.1 °C 1004.3 hPa WNW 6.4 km/h 9.7 km/h 40% 0 mm 7.00 W/m2
20:34 10.7 °C -2.4 °C 1004.3 hPa WNW 6.4 km/h 9.7 km/h 40% 0 mm 5.00 W/m2
20:39 10.5 °C -2.2 °C 1004.3 hPa WNW 6.4 km/h 9.7 km/h 41% 0 mm 0.00 W/m2
20:44 10.3 °C -2.4 °C 1004.3 hPa WNW 3.2 km/h 8 km/h 41% 0 mm 0.00 W/m2
20:49 10.2 °C -2.5 °C 1004.3 hPa WNW 4.8 km/h 6.4 km/h 41% 0 mm 0.00 W/m2
20:54 9.9 °C -2.7 °C 1004.3 hPa WNW 3.2 km/h 4.8 km/h 41% 0 mm 0.00 W/m2
20:59 9.8 °C -2.6 °C 1004.3 hPa WNW 1.6 km/h 4.8 km/h 42% 0 mm 0.00 W/m2
21:04 9.7 °C -2.7 °C 1004.3 hPa WNW 1.6 km/h 3.2 km/h 42% 0 mm 0.00 W/m2
21:09 9.6 °C -2.7 °C 1004.6 hPa WNW 3.2 km/h 6.4 km/h 42% 0 mm 0.00 W/m2
21:14 9.5 °C -2.8 °C 1005 hPa WNW 3.2 km/h 6.4 km/h 42% 0 mm 0.00 W/m2
21:19 9.3 °C -3 °C 1005 hPa WNW 3.2 km/h 4.8 km/h 42% 0 mm 0.00 W/m2
21:24 9.1 °C -2.8 °C 1005 hPa WNW 1.6 km/h 4.8 km/h 43% 0 mm 0.00 W/m2
21:29 9.1 °C -2.9 °C 1005 hPa WNW 1.6 km/h 6.4 km/h 43% 0 mm 0.00 W/m2
21:34 9 °C -2.9 °C 1005 hPa WNW 1.6 km/h 6.4 km/h 43% 0 mm 0.00 W/m2
21:39 8.8 °C -2.8 °C 1005 hPa WNW 3.2 km/h 4.8 km/h 44% 0 mm 0.00 W/m2
21:44 8.6 °C -3 °C 1005 hPa WNW 3.2 km/h 4.8 km/h 44% 0 mm 0.00 W/m2
21:49 8.6 °C -3 °C 1005 hPa WNW 1.6 km/h 4.8 km/h 44% 0 mm 0.00 W/m2
21:54 8.4 °C -2.9 °C 1005.3 hPa WNW 6.4 km/h 6.4 km/h 45% 0 mm 0.00 W/m2
21:59 8.2 °C -2.8 °C 1005.3 hPa North 4.8 km/h 9.7 km/h 46% 0 mm 0.00 W/m2
22:04 7.9 °C -3.1 °C 1005.3 hPa North 3.2 km/h 9.7 km/h 46% 0 mm 0.00 W/m2
22:09 7.8 °C -2.8 °C 1005.3 hPa North 3.2 km/h 6.4 km/h 47% 0 mm 0.00 W/m2
22:14 7.8 °C -3.1 °C 1005.6 hPa North 3.2 km/h 4.8 km/h 46% 0 mm 0.00 W/m2
22:19 7.9 °C -3.1 °C 1005.6 hPa North 3.2 km/h 4.8 km/h 46% 0 mm 0.00 W/m2
22:24 7.9 °C -3.1 °C 1005.6 hPa North 3.2 km/h 4.8 km/h 46% 0 mm 0.00 W/m2
22:29 7.8 °C -3.1 °C 1005.6 hPa North 1.6 km/h 4.8 km/h 46% 0 mm 0.00 W/m2
22:34 7.7 °C -3.2 °C 1005.6 hPa Calm   4.8 km/h 46% 0 mm 0.00 W/m2
22:39 7.6 °C -3.3 °C 1005.6 hPa Calm   3.2 km/h 46% 0 mm 0.00 W/m2
22:44 7.7 °C -3.2 °C 1005.6 hPa Calm   1.6 km/h 46% 0 mm 0.00 W/m2
22:49 7.7 °C -3.2 °C 1005.6 hPa Calm     46% 0 mm 0.00 W/m2
22:54 7.7 °C -3.2 °C 1005.6 hPa Calm     46% 0 mm 0.00 W/m2
22:59 7.6 °C -3.3 °C 1005.6 hPa Calm     46% 0 mm 0.00 W/m2
23:04 7.5 °C -3.4 °C 1005.6 hPa Calm     46% 0 mm 0.00 W/m2
23:09 7.5 °C -3.1 °C 1005.6 hPa Calm     47% 0 mm 0.00 W/m2
23:14 7.6 °C -3 °C 1005.6 hPa North 1.6 km/h 3.2 km/h 47% 0 mm 0.00 W/m2
23:19 7.6 °C -3.3 °C 1005.6 hPa Calm   3.2 km/h 46% 0 mm 0.00 W/m2
23:24 7.6 °C -3.3 °C 1005.6 hPa North 3.2 km/h 3.2 km/h 46% 0 mm 0.00 W/m2
23:29 7.5 °C -3.4 °C 1005.6 hPa North 1.6 km/h 3.2 km/h 46% 0 mm 0.00 W/m2
23:34 7.6 °C -3.1 °C 1005.6 hPa North 1.6 km/h 3.2 km/h 47% 0 mm 0.00 W/m2
23:39 7.7 °C -3.2 °C 1005.6 hPa North 1.6 km/h 3.2 km/h 46% 0 mm 0.00 W/m2
23:44 7.7 °C -3.2 °C 1005.6 hPa Calm   3.2 km/h 46% 0 mm 0.00 W/m2
23:49 7.6 °C -3.3 °C 1006 hPa North 1.6 km/h 3.2 km/h 46% 0 mm 0.00 W/m2
23:54 7.4 °C -3.2 °C 1006 hPa North 3.2 km/h 3.2 km/h 47% 0 mm 0.00 W/m2
23:59 7.3 °C -3.3 °C 1006 hPa North 1.6 km/h 3.2 km/h 47% 0 mm 0.00 W/m2
Bismarck, North Dakota, USA
Compliments of Weather Underground - 4 mb